Time;durP1;ratioP1;P1;durP2;ratioP2;P2;SDS_P1;SDS_P2;PMS_P1;PMS_P2;Temp;Humidity;BMP_temperature;BMP_pressure;BME280_temperature;BME280_humidity;BME280_pressure;Samples;Min_cycle;Max_cycle;Signal;HPM_P1;HPM_P2
2022/03/02 05:12:33;;;;;;;;;;;;;;;4.31;67.14;97500.50;4227544;27;10365;-60
2022/03/02 05:14:35;;;;;;;;;;;;;;;4.37;66.66;97499.94;4201694;28;5650;-60
2022/03/02 05:16:37;;;;;;;;;;;;;;;4.43;66.61;97496.78;4199825;28;5729;-58
2022/03/02 05:18:41;;;;;;;;;;;;;;;4.47;66.81;97500.75;4199900;28;5811;-60
2022/03/02 05:20:43;;;;;;;;;;;;;;;4.50;66.48;97500.47;4201144;28;6312;-60
2022/03/02 05:22:46;;;;;;;;;;;;;;;4.54;66.00;97501.88;4205391;28;5627;-59
2022/03/02 05:24:47;;;;;;;;;;;;;;;4.54;65.96;97498.44;4199494;28;5662;-60
2022/03/02 05:26:49;;;;;;;;;;;;;;;4.55;65.43;97500.09;4210414;28;5686;-60
2022/03/02 05:28:50;;;;;;;;;;;;;;;4.56;65.08;97501.72;4211541;28;5778;-59
2022/03/02 05:30:52;;;;;;;;;;;;;;;4.51;64.81;97488.22;4210035;28;5623;-59
2022/03/02 05:32:54;;;;;;;;;;;;;;;4.48;64.93;97494.56;4201234;28;5856;-59
2022/03/02 05:34:56;;;;;;;;;;;;;;;4.52;64.54;97485.44;4197760;28;5711;-59
2022/03/02 05:36:57;;;;;;;;;;;;;;;4.55;64.03;97485.19;4213308;28;5635;-59
2022/03/02 05:38:59;;;;;;;;;;;;;;;4.54;63.89;97499.25;4203218;28;5718;-59
2022/03/02 05:41:01;;;;;;;;;;;;;;;4.51;63.79;97494.28;4197452;28;5763;-59
2022/03/02 05:43:02;;;;;;;;;;;;;;;4.51;63.38;97498.69;4204551;28;5809;-59
2022/03/02 05:45:05;;;;;;;;;;;;;;;4.50;63.32;97491.81;4204303;28;5688;-60
2022/03/02 05:47:07;;;;;;;;;;;;;;;4.50;63.22;97486.56;4198111;28;5757;-59
2022/03/02 05:49:09;;;;;;;;;;;;;;;4.50;63.28;97492.63;4198736;28;5835;-60
2022/03/02 05:51:11;;;;;;;;;;;;;;;4.48;63.04;97497.19;4201131;28;5857;-59
2022/03/02 05:53:12;;;;;;;;;;;;;;;4.49;63.04;97493.59;4200884;28;5817;-60
2022/03/02 05:55:14;;;;;;;;;;;;;;;4.55;62.95;97489.59;4213665;28;5636;-60
2022/03/02 05:57:16;;;;;;;;;;;;;;;4.56;62.93;97506.97;4199856;28;5711;-60
2022/03/02 05:59:18;;;;;;;;;;;;;;;4.55;63.14;97506.16;4213836;28;5854;-59
2022/03/02 06:01:20;;;;;;;;;;;;;;;4.52;63.26;97506.41;4208577;28;5683;-59
2022/03/02 06:03:22;;;;;;;;;;;;;;;4.48;63.37;97505.03;4213671;28;5627;-61
2022/03/02 06:05:24;;;;;;;;;;;;;;;4.45;63.35;97502.69;4213002;28;5643;-60
2022/03/02 06:07:25;;;;;;;;;;;;;;;4.43;63.58;97502.00;4197109;28;5732;-62
2022/03/02 06:09:27;;;;;;;;;;;;;;;4.42;63.62;97515.22;4197281;28;5765;-60
2022/03/02 06:11:30;;;;;;;;;;;;;;;4.42;63.68;97507.34;4201252;28;5654;-60
2022/03/02 06:13:32;;;;;;;;;;;;;;;4.43;63.63;97512.50;4199404;28;5803;-60
2022/03/02 06:15:34;;;;;;;;;;;;;;;4.45;63.54;97505.31;4202679;28;6403;-60
2022/03/02 06:17:35;;;;;;;;;;;;;;;4.48;63.74;97512.88;4172286;28;5107;-59
2022/03/02 06:19:37;;;;;;;;;;;;;;;4.47;63.63;97511.25;4186169;28;7701;-60
2022/03/02 06:21:43;;;;;;;;;;;;;;;4.46;63.96;97509.59;4185986;28;5737;-63
2022/03/02 06:23:45;;;;;;;;;;;;;;;4.48;63.74;97512.88;4202510;28;5630;-60
2022/03/02 06:25:47;;;;;;;;;;;;;;;4.52;64.00;97510.81;4202148;28;5734;-60
2022/03/02 06:27:48;;;;;;;;;;;;;;;4.50;63.94;97512.75;4195582;28;5730;-60
2022/03/02 06:29:50;;;;;;;;;;;;;;;4.51;63.98;97520.47;4197166;28;6521;-60
2022/03/02 06:31:52;;;;;;;;;;;;;;;4.52;64.25;97522.09;4185751;28;5654;-59
2022/03/02 06:33:53;;;;;;;;;;;;;;;4.54;64.17;97529.84;4167790;28;5817;-60
2022/03/02 06:35:55;;;;;;;;;;;;;;;4.53;64.17;97523.78;4185713;28;5662;-60
2022/03/02 06:37:57;;;;;;;;;;;;;;;4.54;64.16;97520.22;4185994;28;5800;-62
2022/03/02 06:40:17;;;;;;;;;;;;;;;4.59;64.43;97525.03;4208340;28;5695;-61
2022/03/02 06:42:24;;;;;;;;;;;;;;;4.60;64.41;97518.81;4219053;28;5616;-61
2022/03/02 06:44:30;;;;;;;;;;;;;;;4.62;64.69;97525.56;4218007;28;5612;-61
2022/03/02 06:47:01;;;;;;;;;;;;;;;4.62;64.63;97522.13;4205243;28;5623;-61
2022/03/02 06:49:25;;;;;;;;;;;;;;;4.64;65.15;97525.41;4219214;28;5623;-61
2022/03/02 06:51:29;;;;;;;;;;;;;;;4.70;65.12;97519.66;4218885;28;5695;-60
2022/03/02 06:53:33;;;;;;;;;;;;;;;4.71;65.54;97526.53;4219003;28;5691;-61
2022/03/02 06:55:35;;;;;;;;;;;;;;;4.70;65.54;97524.06;4218924;28;6392;-60
2022/03/02 06:57:38;;;;;;;;;;;;;;;4.73;66.08;97526.38;4218903;28;5713;-60
2022/03/02 06:59:51;;;;;;;;;;;;;;;4.75;66.28;97516.59;4200596;28;5739;-60
2022/03/02 07:02:00;;;;;;;;;;;;;;;4.68;66.75;97525.03;4218090;28;5616;-60
2022/03/02 07:04:02;;;;;;;;;;;;;;;4.56;67.51;97526.13;4218564;28;5605;-60
2022/03/02 07:06:04;;;;;;;;;;;;;;;4.58;67.13;97532.06;4218451;28;5620;-61
2022/03/02 07:08:08;;;;;;;;;;;;;;;4.58;67.20;97534.66;4218677;28;5723;-61
2022/03/02 07:10:13;;;;;;;;;;;;;;;4.61;67.33;97530.94;4218584;28;7680;-62
2022/03/02 07:12:16;;;;;;;;;;;;;;;4.53;67.90;97529.03;4186237;28;5662;-62
2022/03/02 07:14:20;;;;;;;;;;;;;;;4.52;67.97;97532.59;4197115;28;5724;-62
2022/03/02 07:16:21;;;;;;;;;;;;;;;4.32;69.59;97533.56;4201988;28;5803;-61
2022/03/02 07:18:24;;;;;;;;;;;;;;;4.35;68.44;97538.50;4201218;28;6452;-60
2022/03/02 07:20:29;;;;;;;;;;;;;;;4.45;67.91;97531.50;4183769;28;5654;-60
2022/03/02 07:22:33;;;;;;;;;;;;;;;4.41;67.86;97529.28;4201818;28;5787;-61
2022/03/02 07:24:44;;;;;;;;;;;;;;;4.43;67.12;97522.13;4200571;28;5751;-60
2022/03/02 07:26:52;;;;;;;;;;;;;;;4.38;67.70;97530.38;4201638;28;5818;-60
2022/03/02 07:28:55;;;;;;;;;;;;;;;3.88;69.55;97527.81;4200947;28;5738;-60
2022/03/02 07:30:57;;;;;;;;;;;;;;;4.12;68.47;97524.00;4200678;28;5838;-60
2022/03/02 07:33:04;;;;;;;;;;;;;;;4.42;67.07;97531.78;4201009;28;5742;-60
2022/03/02 07:35:06;;;;;;;;;;;;;;;4.54;66.69;97530.69;4201218;28;5751;-60
2022/03/02 07:37:11;;;;;;;;;;;;;;;4.52;67.12;97522.09;4201394;28;5739;-60
2022/03/02 07:39:13;;;;;;;;;;;;;;;4.51;67.79;97522.25;4201351;28;5743;-61
2022/03/02 07:41:15;;;;;;;;;;;;;;;4.48;67.39;97523.34;4199924;28;5632;-62
2022/03/02 07:43:19;;;;;;;;;;;;;;;4.59;67.55;97525.84;4201107;28;5718;-61
2022/03/02 07:45:21;;;;;;;;;;;;;;;4.59;68.13;97528.47;4201477;28;5631;-60
2022/03/02 07:47:24;;;;;;;;;;;;;;;4.57;67.41;97530.41;4200757;28;5756;-60
2022/03/02 07:49:26;;;;;;;;;;;;;;;4.30;68.67;97530.22;4201020;28;5791;-60
2022/03/02 07:51:28;;;;;;;;;;;;;;;4.27;68.43;97533.94;4201181;28;5645;-60
2022/03/02 07:53:40;;;;;;;;;;;;;;;4.40;68.54;97538.91;4201130;28;5640;-60
2022/03/02 07:55:43;;;;;;;;;;;;;;;4.48;67.44;97536.44;4201044;28;5679;-63
2022/03/02 07:57:55;;;;;;;;;;;;;;;4.52;67.44;97529.97;4201003;28;5723;-60
2022/03/02 07:59:58;;;;;;;;;;;;;;;4.48;67.54;97533.84;4183023;28;6440;-60
2022/03/02 08:02:01;;;;;;;;;;;;;;;4.41;67.67;97535.34;4200405;28;5769;-60
2022/03/02 08:04:06;;;;;;;;;;;;;;;4.30;68.58;97533.69;4190952;28;5898;-61
2022/03/02 08:06:08;;;;;;;;;;;;;;;4.34;69.54;97539.47;4184143;28;5682;-61
2022/03/02 08:08:10;;;;;;;;;;;;;;;4.29;69.32;97525.94;4185252;28;5662;-61
2022/03/02 08:10:15;;;;;;;;;;;;;;;4.50;69.07;97534.53;4200896;28;6325;-61
2022/03/02 08:12:20;;;;;;;;;;;;;;;4.59;68.30;97525.03;4191799;28;5729;-61
2022/03/02 08:14:24;;;;;;;;;;;;;;;4.58;68.27;97528.59;4190571;28;5675;-60
2022/03/02 08:16:30;;;;;;;;;;;;;;;4.70;67.63;97524.06;4197117;28;5624;-60
2022/03/02 08:18:32;;;;;;;;;;;;;;;4.73;67.43;97518.53;4183628;28;5830;-60
2022/03/02 08:20:35;;;;;;;;;;;;;;;4.76;66.59;97518.28;4184092;28;5659;-59
2022/03/02 08:22:44;;;;;;;;;;;;;;;4.84;66.09;97516.59;4184222;28;5658;-59
2022/03/02 08:24:56;;;;;;;;;;;;;;;4.91;65.81;97516.88;4184363;28;5753;-61
2022/03/02 08:27:01;;;;;;;;;;;;;;;4.92;66.07;97511.50;4184448;28;5733;-61
2022/03/02 08:29:09;;;;;;;;;;;;;;;4.98;65.80;97512.69;4184392;28;6315;-60
2022/03/02 08:31:12;;;;;;;;;;;;;;;5.00;65.67;97502.94;4183874;28;5672;-61
2022/03/02 08:33:27;;;;;;;;;;;;;;;4.99;65.99;97508.31;4183446;28;5804;-60
2022/03/02 08:35:35;;;;;;;;;;;;;;;4.87;66.10;97505.00;4183583;28;5643;-60
2022/03/02 08:37:37;;;;;;;;;;;;;;;4.89;66.64;97503.09;4183765;28;5737;-60
2022/03/02 08:39:40;;;;;;;;;;;;;;;5.02;66.02;97502.78;4185368;28;5642;-61
2022/03/02 08:41:42;;;;;;;;;;;;;;;4.88;66.57;97497.03;4200527;28;5827;-61
2022/03/02 08:43:45;;;;;;;;;;;;;;;4.81;65.70;97495.91;4200425;28;5644;-60
2022/03/02 08:45:51;;;;;;;;;;;;;;;4.79;65.35;97492.63;4200414;28;5627;-60
2022/03/02 08:47:54;;;;;;;;;;;;;;;4.91;65.40;97498.53;4200109;28;5640;-60
2022/03/02 08:49:56;;;;;;;;;;;;;;;4.79;66.29;97494.41;4200262;28;5635;-62
2022/03/02 08:51:58;;;;;;;;;;;;;;;4.85;66.49;97493.84;4200426;28;5631;-60
2022/03/02 08:54:02;;;;;;;;;;;;;;;5.03;66.03;97505.25;4200389;28;5624;-59
2022/03/02 08:56:06;;;;;;;;;;;;;;;5.12;66.34;97500.97;4200122;28;5635;-60
2022/03/02 08:58:09;;;;;;;;;;;;;;;5.17;66.38;97502.19;4200163;28;5624;-60
2022/03/02 09:00:14;;;;;;;;;;;;;;;5.19;66.69;97499.41;4200263;28;5748;-60
2022/03/02 09:02:19;;;;;;;;;;;;;;;5.07;67.26;97496.13;4199334;28;5635;-60
2022/03/02 09:04:23;;;;;;;;;;;;;;;5.08;67.34;97503.03;4200383;28;5077;-60
2022/03/02 09:06:27;;;;;;;;;;;;;;;5.10;67.35;97497.69;4200243;28;5745;-59
2022/03/02 09:08:32;;;;;;;;;;;;;;;5.15;67.56;97495.44;4187061;28;5670;-60
2022/03/02 09:10:35;;;;;;;;;;;;;;;5.14;67.11;97497.25;4184314;28;5662;-59
2022/03/02 09:12:41;;;;;;;;;;;;;;;5.19;67.27;97500.25;4200080;28;5759;-60
2022/03/02 09:14:44;;;;;;;;;;;;;;;5.21;66.98;97490.47;4199840;28;5827;-60
2022/03/02 09:16:45;;;;;;;;;;;;;;;5.24;66.55;97481.50;4199506;28;5651;-60
2022/03/02 09:18:51;;;;;;;;;;;;;;;4.81;67.97;97487.25;4199754;28;5639;-60
2022/03/02 09:20:59;;;;;;;;;;;;;;;5.11;67.19;97489.66;4196049;28;5710;-59
2022/03/02 09:23:04;;;;;;;;;;;;;;;5.30;66.87;97482.69;4186776;28;5755;-60
2022/03/02 09:25:08;;;;;;;;;;;;;;;5.19;66.16;97484.53;4187503;28;5733;-60
2022/03/02 09:27:11;;;;;;;;;;;;;;;5.28;65.67;97480.22;4187196;28;5708;-60
2022/03/02 09:29:17;;;;;;;;;;;;;;;5.24;65.14;97473.63;4186149;28;5677;-60
2022/03/02 09:31:22;;;;;;;;;;;;;;;5.19;65.51;97468.78;4183133;28;5646;-60
2022/03/02 09:33:25;;;;;;;;;;;;;;;5.25;66.38;97470.84;4196263;28;5647;-60
2022/03/02 09:35:31;;;;;;;;;;;;;;;5.21;66.70;97471.28;4185210;28;5774;-60
2022/03/02 09:37:37;;;;;;;;;;;;;;;5.19;66.64;97470.59;4184075;28;5718;-60
2022/03/02 09:39:39;;;;;;;;;;;;;;;5.16;66.79;97461.22;4185174;28;5657;-60
2022/03/02 09:41:49;;;;;;;;;;;;;;;5.31;66.84;97469.44;4200136;28;5644;-60
2022/03/02 09:43:55;;;;;;;;;;;;;;;5.30;66.24;97459.09;4184163;28;5650;-60
2022/03/02 09:46:04;;;;;;;;;;;;;;;5.45;65.47;97461.13;4183094;28;5751;-61
2022/03/02 09:48:15;;;;;;;;;;;;;;;5.45;65.80;97463.75;4184410;28;5812;-60
2022/03/02 09:50:19;;;;;;;;;;;;;;;5.44;65.25;97461.28;4186454;28;5808;-61
2022/03/02 09:52:22;;;;;;;;;;;;;;;5.49;65.19;97461.66;4185602;28;6339;-60
2022/03/02 09:54:25;;;;;;;;;;;;;;;5.56;64.67;97460.13;4186212;28;5686;-60
2022/03/02 09:56:29;;;;;;;;;;;;;;;5.59;65.67;97457.19;4186183;28;5752;-63
2022/03/02 09:58:37;;;;;;;;;;;;;;;5.56;65.64;97454.88;4200553;28;5639;-60
2022/03/02 10:00:41;;;;;;;;;;;;;;;5.64;65.62;97462.81;4202533;28;5643;-60
2022/03/02 10:02:46;;;;;;;;;;;;;;;5.40;66.83;97454.66;4197206;28;5982;-61
2022/03/02 10:04:51;;;;;;;;;;;;;;;5.55;66.07;97454.03;4193005;28;5710;-67
2022/03/02 10:09:23;;;;;;;;;;;;;;;5.60;65.50;97450.97;4194269;28;8467;-70
2022/03/02 10:11:31;;;;;;;;;;;;;;;5.56;65.81;97449.63;4198289;28;5834;-72
2022/03/02 10:13:33;;;;;;;;;;;;;;;5.69;65.57;97447.47;4199533;28;5792;-76
2022/03/02 10:15:37;;;;;;;;;;;;;;;5.74;65.64;97447.84;4192382;28;5651;-77
2022/03/02 10:17:44;;;;;;;;;;;;;;;5.74;65.81;97445.22;4187563;28;5647;-73
2022/03/02 10:19:53;;;;;;;;;;;;;;;5.84;65.56;97443.38;4192331;28;5759;-78
2022/03/02 10:22:22;;;;;;;;;;;;;;;5.75;66.41;97449.50;4193763;28;5654;-72
2022/03/02 10:24:25;;;;;;;;;;;;;;;5.83;66.09;97441.72;4187336;28;5685;-73
2022/03/02 10:26:30;;;;;;;;;;;;;;;5.94;65.71;97442.53;4200999;28;5643;-76
2022/03/02 10:28:55;;;;;;;;;;;;;;;5.99;65.69;97440.25;4201571;28;6293;-67
2022/03/02 10:31:15;;;;;;;;;;;;;;;6.08;64.02;97431.50;4188804;28;5733;-71
2022/03/02 10:33:23;;;;;;;;;;;;;;;6.07;63.59;97435.09;4185584;28;5737;-74
2022/03/02 10:35:28;;;;;;;;;;;;;;;6.17;64.07;97443.75;4187030;28;5847;-78
2022/03/02 10:37:39;;;;;;;;;;;;;;;5.94;63.12;97443.34;4193062;28;5736;-74
2022/03/02 10:40:05;;;;;;;;;;;;;;;6.10;63.69;97440.06;4190956;28;5722;-78
2022/03/02 10:42:16;;;;;;;;;;;;;;;5.96;65.37;97430.91;4198828;28;5623;-71
2022/03/02 10:44:43;;;;;;;;;;;;;;;6.22;62.56;97433.59;4197195;28;5729;-72
2022/03/02 10:46:53;;;;;;;;;;;;;;;6.20;63.27;97434.72;4202486;28;5750;-72
2022/03/02 10:49:07;;;;;;;;;;;;;;;6.28;63.38;97433.00;4200802;28;5734;-79
2022/03/02 10:51:10;;;;;;;;;;;;;;;6.33;63.09;97427.28;4185350;28;5800;-74
2022/03/02 10:53:18;;;;;;;;;;;;;;;6.27;62.17;97423.50;4191141;28;5652;-71
2022/03/02 10:55:21;;;;;;;;;;;;;;;6.32;62.43;97428.28;4199378;28;5640;-71
2022/03/02 10:57:25;;;;;;;;;;;;;;;6.31;63.23;97424.81;4191957;28;5647;-70
2022/03/02 10:59:31;;;;;;;;;;;;;;;6.23;63.49;97418.66;4201393;28;5742;-66
2022/03/02 11:01:37;;;;;;;;;;;;;;;6.10;57.75;97417.25;4196353;28;5923;-71
2022/03/02 11:03:39;;;;;;;;;;;;;;;6.32;59.96;97408.09;4191068;28;5641;-74
2022/03/02 11:05:41;;;;;;;;;;;;;;;6.34;59.96;97406.16;4185886;28;5757;-74
2022/03/02 11:07:44;;;;;;;;;;;;;;;6.39;57.39;97406.53;4196327;28;5704;-74
2022/03/02 11:09:52;;;;;;;;;;;;;;;6.16;56.61;97400.09;4202692;28;5703;-72
2022/03/02 11:11:54;;;;;;;;;;;;;;;6.37;56.91;97397.97;4200733;28;5691;-73
2022/03/02 11:13:56;;;;;;;;;;;;;;;6.53;58.73;97399.06;4202719;28;5735;-74
2022/03/02 11:16:00;;;;;;;;;;;;;;;6.74;59.11;97398.72;4203019;28;5772;-74
2022/03/02 11:18:02;;;;;;;;;;;;;;;6.72;58.36;97391.81;4201892;28;5720;-72
2022/03/02 11:20:10;;;;;;;;;;;;;;;6.82;58.69;97396.16;4213245;28;5609;-71
2022/03/02 11:22:16;;;;;;;;;;;;;;;6.87;58.45;97388.63;4218825;28;5628;-69
2022/03/02 11:24:20;;;;;;;;;;;;;;;6.93;59.26;97383.59;4219045;28;5612;-70
2022/03/02 11:26:31;;;;;;;;;;;;;;;7.02;59.69;97387.06;4218646;28;5644;-70
2022/03/02 11:28:35;;;;;;;;;;;;;;;6.83;60.42;97382.88;4210460;28;5698;-71
2022/03/02 11:30:37;;;;;;;;;;;;;;;7.01;60.32;97382.78;4201785;28;5715;-70
2022/03/02 11:32:41;;;;;;;;;;;;;;;6.98;60.27;97378.66;4201608;28;5644;-71
2022/03/02 11:34:48;;;;;;;;;;;;;;;6.92;61.36;97381.94;4202013;28;5725;-71
2022/03/02 11:36:58;;;;;;;;;;;;;;;6.90;61.58;97367.28;4201893;28;5640;-72
2022/03/02 11:39:01;;;;;;;;;;;;;;;7.04;60.76;97355.38;4201846;28;5626;-72
2022/03/02 11:41:03;;;;;;;;;;;;;;;6.88;59.86;97364.81;4202133;28;5702;-72
2022/03/02 11:43:25;;;;;;;;;;;;;;;7.06;59.92;97361.28;4202205;28;5644;-71
2022/03/02 11:45:36;;;;;;;;;;;;;;;7.14;59.23;97362.16;4196251;28;5741;-73
2022/03/02 11:47:41;;;;;;;;;;;;;;;7.20;59.44;97352.81;4185537;28;5697;-72
2022/03/02 11:49:51;;;;;;;;;;;;;;;7.05;60.59;97349.97;4185646;28;5709;-73
2022/03/02 11:52:19;;;;;;;;;;;;;;;7.28;59.25;97343.16;4185642;28;5638;-74
2022/03/02 11:54:21;;;;;;;;;;;;;;;7.39;58.92;97349.09;4191988;28;5635;-75
2022/03/02 11:56:25;;;;;;;;;;;;;;;7.33;59.90;97340.03;4188980;28;5952;-74
2022/03/02 11:58:46;;;;;;;;;;;;;;;7.33;60.41;97339.22;4190829;28;8092;-73
2022/03/02 12:01:07;;;;;;;;;;;;;;;7.37;59.67;97322.97;4184219;28;5773;-74
2022/03/02 12:03:09;;;;;;;;;;;;;;;7.37;60.11;97333.50;4193786;28;5089;-75
2022/03/02 12:05:12;;;;;;;;;;;;;;;7.37;59.00;97336.13;4196885;28;5664;-74
2022/03/02 12:07:14;;;;;;;;;;;;;;;7.32;58.05;97327.03;4195197;28;5642;-73
2022/03/02 12:09:34;;;;;;;;;;;;;;;7.32;56.53;97325.25;4184426;28;5642;-74
2022/03/02 12:11:40;;;;;;;;;;;;;;;7.32;56.62;97314.72;4193516;28;5875;-74
2022/03/02 12:13:59;;;;;;;;;;;;;;;7.15;54.82;97318.28;4198740;28;5619;-77
2022/03/02 12:16:01;;;;;;;;;;;;;;;7.25;55.01;97308.47;4184355;28;5661;-75
2022/03/02 12:18:11;;;;;;;;;;;;;;;7.40;54.74;97301.59;4198447;28;5699;-75
2022/03/02 12:20:17;;;;;;;;;;;;;;;7.42;54.71;97299.63;4200276;28;5797;-75
2022/03/02 12:22:18;;;;;;;;;;;;;;;7.51;55.73;97308.38;4199804;28;7761;-74
2022/03/02 12:24:31;;;;;;;;;;;;;;;7.54;56.14;97300.97;4201199;28;5635;-75
2022/03/02 12:26:34;;;;;;;;;;;;;;;7.45;57.07;97298.47;4200892;28;5642;-74
2022/03/02 12:28:36;;;;;;;;;;;;;;;7.57;56.34;97286.66;4191057;28;5718;-73
2022/03/02 12:30:38;;;;;;;;;;;;;;;7.68;55.70;97288.16;4184813;28;5642;-72
2022/03/02 12:32:45;;;;;;;;;;;;;;;7.64;55.30;97281.56;4183636;28;5729;-71
2022/03/02 12:34:53;;;;;;;;;;;;;;;7.76;55.77;97281.09;4183911;28;5756;-72
2022/03/02 12:36:54;;;;;;;;;;;;;;;7.86;56.10;97276.50;4193561;28;5652;-69
2022/03/02 12:38:56;;;;;;;;;;;;;;;7.85;55.66;97271.41;4200219;28;5707;-70
2022/03/02 12:40:58;;;;;;;;;;;;;;;7.82;56.25;97269.09;4188512;28;5820;-70
2022/03/02 12:43:01;;;;;;;;;;;;;;;7.65;57.20;97263.00;4183104;28;6396;-70
2022/03/02 12:45:04;;;;;;;;;;;;;;;7.67;58.22;97265.44;4187633;28;5634;-69
2022/03/02 12:47:16;;;;;;;;;;;;;;;7.79;58.50;97261.50;4196427;28;5631;-69
2022/03/02 12:49:25;;;;;;;;;;;;;;;7.67;58.56;97261.00;4194667;28;5658;-72
2022/03/02 12:51:31;;;;;;;;;;;;;;;7.76;58.19;97259.22;4196222;28;5731;-74
2022/03/02 12:53:36;;;;;;;;;;;;;;;7.66;59.16;97259.38;4184037;28;5701;-74
2022/03/02 12:55:42;;;;;;;;;;;;;;;7.78;58.68;97246.72;4195409;28;5643;-72
2022/03/02 12:57:46;;;;;;;;;;;;;;;7.85;57.82;97238.00;4196262;28;5761;-73
2022/03/02 12:59:50;;;;;;;;;;;;;;;7.87;58.49;97237.84;4195929;28;5628;-74
2022/03/02 13:01:53;;;;;;;;;;;;;;;7.88;58.24;97237.66;4187974;28;5791;-77
2022/03/02 13:03:59;;;;;;;;;;;;;;;7.99;58.26;97236.50;4198802;28;5651;-75
2022/03/02 13:06:11;;;;;;;;;;;;;;;8.10;57.54;97230.91;4187187;28;5646;-77
2022/03/02 13:08:22;;;;;;;;;;;;;;;8.08;57.40;97227.63;4193967;28;5694;-75
2022/03/02 13:10:25;;;;;;;;;;;;;;;8.15;57.57;97225.13;4193046;28;5773;-75
2022/03/02 13:12:51;;;;;;;;;;;;;;;8.10;56.91;97228.25;4192999;28;5647;-74
2022/03/02 13:14:53;;;;;;;;;;;;;;;8.16;57.30;97230.25;4184399;28;5654;-75
2022/03/02 13:16:54;;;;;;;;;;;;;;;8.22;57.25;97220.84;4199072;28;5643;-74
2022/03/02 13:19:18;;;;;;;;;;;;;;;8.27;56.94;97231.72;4183631;28;5681;-75
2022/03/02 13:21:31;;;;;;;;;;;;;;;8.35;56.89;97218.53;4199745;28;5773;-74
2022/03/02 13:23:34;;;;;;;;;;;;;;;8.37;56.87;97221.00;4203840;28;5627;-80
2022/03/02 13:25:36;;;;;;;;;;;;;;;8.33;56.60;97219.66;4188956;28;5749;-77
2022/03/02 13:28:06;;;;;;;;;;;;;;;8.44;56.62;97214.06;4191899;28;6333;-74
2022/03/02 13:30:10;;;;;;;;;;;;;;;8.40;55.76;97216.22;4188447;28;5742;-76
2022/03/02 13:32:12;;;;;;;;;;;;;;;8.34;56.09;97216.03;4202043;28;5638;-74
2022/03/02 13:34:16;;;;;;;;;;;;;;;8.26;56.30;97208.97;4202090;28;6539;-75
2022/03/02 13:36:37;;;;;;;;;;;;;;;8.35;55.25;97215.06;4195493;28;5110;-77
2022/03/02 13:38:43;;;;;;;;;;;;;;;8.30;54.47;97201.56;4194275;28;5656;-78
2022/03/02 13:40:48;;;;;;;;;;;;;;;8.37;54.65;97205.19;4204614;28;6285;-80
2022/03/02 13:42:50;;;;;;;;;;;;;;;8.43;54.03;97202.69;4196324;28;5719;-75
2022/03/02 13:45:07;;;;;;;;;;;;;;;8.46;52.61;97198.91;4202652;28;6404;-76
2022/03/02 13:47:15;;;;;;;;;;;;;;;8.55;53.08;97207.59;4202764;28;5759;-75
2022/03/02 13:49:25;;;;;;;;;;;;;;;8.58;53.46;97196.72;4203725;28;5684;-77
2022/03/02 13:51:27;;;;;;;;;;;;;;;8.60;53.85;97195.53;4202896;28;5857;-78
2022/03/02 13:53:40;;;;;;;;;;;;;;;8.69;53.13;97189.25;4203177;28;5643;-77
2022/03/02 13:55:43;;;;;;;;;;;;;;;8.76;52.01;97186.78;4203151;28;5635;-76
2022/03/02 13:57:46;;;;;;;;;;;;;;;8.80;52.35;97190.69;4189453;28;5654;-77
2022/03/02 14:00:19;;;;;;;;;;;;;;;8.82;51.77;97186.06;4197242;28;5993;-81
2022/03/02 14:02:21;;;;;;;;;;;;;;;8.82;51.38;97187.88;4203574;28;6717;-80
2022/03/02 14:04:23;;;;;;;;;;;;;;;8.70;50.61;97180.34;4203633;28;5659;-80
2022/03/02 14:06:26;;;;;;;;;;;;;;;8.67;50.62;97169.34;4203142;28;5807;-78
2022/03/02 14:08:28;;;;;;;;;;;;;;;8.64;51.80;97180.25;4209098;28;5636;-79
2022/03/02 14:10:30;;;;;;;;;;;;;;;8.64;52.37;97172.31;4186839;28;5669;-78
2022/03/02 14:12:32;;;;;;;;;;;;;;;8.62;51.52;97169.88;4188067;28;5099;-73
2022/03/02 14:14:35;;;;;;;;;;;;;;;8.65;51.82;97177.44;4192779;28;5690;-80
2022/03/02 14:16:38;;;;;;;;;;;;;;;8.75;51.83;97172.78;4204079;28;5734;-81
2022/03/02 14:18:42;;;;;;;;;;;;;;;8.76;50.97;97168.31;4190415;28;5670;-78
2022/03/02 14:20:46;;;;;;;;;;;;;;;8.79;50.90;97162.69;4201044;28;5717;-79
2022/03/02 14:23:08;;;;;;;;;;;;;;;8.61;49.93;97159.50;4201082;28;5776;-80
2022/03/02 14:25:13;;;;;;;;;;;;;;;8.52;49.40;97165.78;4192640;28;5690;-79
2022/03/02 14:27:16;;;;;;;;;;;;;;;8.59;50.71;97158.81;4189207;28;5635;-79
2022/03/02 14:29:20;;;;;;;;;;;;;;;8.72;50.97;97154.66;4188136;28;5737;-79
2022/03/02 14:31:21;;;;;;;;;;;;;;;8.77;50.48;97158.59;4195095;28;5666;-79
2022/03/02 14:33:25;;;;;;;;;;;;;;;8.75;49.80;97151.69;4192078;28;5654;-80
2022/03/02 14:35:28;;;;;;;;;;;;;;;8.72;50.27;97154.66;4192974;28;5781;-77
2022/03/02 14:37:39;;;;;;;;;;;;;;;8.74;50.37;97150.03;4185440;28;5786;-77
2022/03/02 14:40:24;;;;;;;;;;;;;;;8.81;50.94;97149.34;4196640;28;5626;-72
2022/03/02 14:42:28;;;;;;;;;;;;;;;8.88;50.98;97153.75;4185476;28;5772;-75
2022/03/02 14:44:29;;;;;;;;;;;;;;;8.94;50.48;97144.31;4185082;28;5815;-75
2022/03/02 14:46:35;;;;;;;;;;;;;;;8.90;50.50;97140.38;4185445;28;5831;-73
2022/03/02 14:48:36;;;;;;;;;;;;;;;8.97;50.67;97142.16;4184893;28;5764;-75
2022/03/02 14:50:42;;;;;;;;;;;;;;;8.99;50.13;97140.16;4185151;28;6383;-74
2022/03/02 14:52:51;;;;;;;;;;;;;;;8.99;50.28;97137.53;4185823;28;5646;-74
2022/03/02 14:54:53;;;;;;;;;;;;;;;8.98;51.18;97141.16;4185338;28;6323;-75
2022/03/02 14:56:55;;;;;;;;;;;;;;;8.98;50.51;97140.34;4185296;28;5698;-75
2022/03/02 14:58:58;;;;;;;;;;;;;;;8.93;50.08;97140.03;4185285;28;5705;-75
2022/03/02 15:01:07;;;;;;;;;;;;;;;8.81;49.81;97138.78;4184825;28;5659;-76
2022/03/02 15:03:15;;;;;;;;;;;;;;;8.84;50.44;97139.28;4184724;28;5733;-75
2022/03/02 15:05:19;;;;;;;;;;;;;;;8.77;49.26;97137.50;4191397;28;5094;-77
2022/03/02 15:07:21;;;;;;;;;;;;;;;8.70;50.36;97132.91;4190486;28;5650;-77
2022/03/02 15:09:23;;;;;;;;;;;;;;;8.81;50.45;97136.16;4190280;28;5671;-75
2022/03/02 15:11:26;;;;;;;;;;;;;;;8.82;50.25;97127.25;4185318;28;5713;-76
2022/03/02 15:15:54;;;;;;;;;;;;;;;8.95;50.40;97132.78;4201343;28;5747;-74
2022/03/02 15:18:14;;;;;;;;;;;;;;;8.96;49.99;97126.53;4205146;28;5826;-75
2022/03/02 15:20:16;;;;;;;;;;;;;;;8.97;49.22;97122.88;4187454;28;5661;-75
2022/03/02 15:22:23;;;;;;;;;;;;;;;8.96;51.16;97121.25;4202798;28;5751;-77
2022/03/02 15:24:30;;;;;;;;;;;;;;;8.89;52.86;97115.03;4201134;28;5686;-76
2022/03/02 15:26:32;;;;;;;;;;;;;;;8.87;55.22;97120.47;4193596;28;5776;-73
2022/03/02 15:28:34;;;;;;;;;;;;;;;8.78;57.41;97118.88;4195780;28;5658;-73
2022/03/02 15:30:37;;;;;;;;;;;;;;;8.82;57.23;97114.88;4193433;28;5650;-80
2022/03/02 15:32:40;;;;;;;;;;;;;;;8.80;58.20;97111.59;4193935;28;5785;-79
2022/03/02 15:34:47;;;;;;;;;;;;;;;8.83;60.05;97119.16;4196071;28;5706;-76
2022/03/02 15:36:54;;;;;;;;;;;;;;;8.87;59.47;97114.38;4203782;28;5505;-79
2022/03/02 15:38:58;;;;;;;;;;;;;;;8.65;60.87;97108.09;4202337;28;5627;-76
2022/03/02 15:41:00;;;;;;;;;;;;;;;8.64;60.80;97099.34;4192428;28;5745;-75
2022/03/02 15:43:08;;;;;;;;;;;;;;;8.63;61.00;97110.06;4189381;28;5738;-76
2022/03/02 15:45:23;;;;;;;;;;;;;;;8.67;60.73;97106.91;4183874;28;7295;-73
2022/03/02 15:47:48;;;;;;;;;;;;;;;8.55;60.76;97113.56;4196902;28;6478;-69
2022/03/02 15:49:52;;;;;;;;;;;;;;;8.45;60.80;97105.03;4190909;28;5090;-81
2022/03/02 15:52:08;;;;;;;;;;;;;;;8.43;60.60;97109.66;4193137;28;5631;-76
2022/03/02 15:54:12;;;;;;;;;;;;;;;8.56;60.08;97109.13;4185491;28;5624;-78
2022/03/02 15:56:20;;;;;;;;;;;;;;;8.42;60.57;97115.94;4185118;28;5654;-71
2022/03/02 15:58:32;;;;;;;;;;;;;;;8.39;60.59;97113.66;4183343;28;5836;-69
2022/03/02 16:00:34;;;;;;;;;;;;;;;8.40;60.39;97104.75;4194452;28;5702;-71
2022/03/02 16:02:37;;;;;;;;;;;;;;;8.43;60.55;97112.31;4183293;28;5733;-72
2022/03/02 16:04:57;;;;;;;;;;;;;;;8.39;60.42;97114.47;4196284;28;5810;-72
2022/03/02 16:07:02;;;;;;;;;;;;;;;8.33;60.17;97107.22;4200512;28;5835;-73
2022/03/02 16:09:16;;;;;;;;;;;;;;;8.24;60.70;97104.78;4200920;28;5643;-71
2022/03/02 16:11:30;;;;;;;;;;;;;;;8.41;60.35;97095.84;4196464;28;5793;-74
2022/03/02 16:13:32;;;;;;;;;;;;;;;8.43;60.09;97101.75;4196476;28;5750;-74
2022/03/02 16:15:40;;;;;;;;;;;;;;;8.51;59.88;97103.56;4200765;28;5814;-73
2022/03/02 16:17:45;;;;;;;;;;;;;;;8.52;59.97;97103.38;4199819;28;5654;-71
2022/03/02 16:19:46;;;;;;;;;;;;;;;8.59;59.73;97106.94;4182314;28;5867;-72
2022/03/02 16:21:50;;;;;;;;;;;;;;;8.59;59.58;97112.22;4194259;28;5682;-70
2022/03/02 16:23:54;;;;;;;;;;;;;;;8.56;60.25;97106.47;4184740;28;5624;-71
2022/03/02 16:25:58;;;;;;;;;;;;;;;8.60;59.96;97099.84;4186718;28;5727;-71
2022/03/02 16:28:10;;;;;;;;;;;;;;;8.72;59.72;97104.59;4186260;28;7053;-71
2022/03/02 16:30:12;;;;;;;;;;;;;;;8.76;59.62;97099.78;4185296;28;5697;-69